Impacts TAF Board
For situational awareness. Not to be used for flight planning purposes.
IDs:

KLGA - New York/La Guardia, NY, US

Issued at 1720 UTC 24 Sep 2018
Updated at 1745 UTC 24 Sep 2018
Potential Impact None Slight Moderate High
Time<<25/06Z 25/07Z 25/08Z 25/09Z 25/10Z 25/11Z 25/12Z 25/13Z 25/14Z 25/15Z 25/16Z 25/17Z 25/18Z>>
Type PRVL PRVL PRVL PRVL PRVL PRVL PRVL PRVL PRVL PRVL PRVL PRVL PRVL
VIS 6 6 6 3 3 3 3 3 3 3 2 2 2
CIG 15 15 15 9 9 9 9 9 9 9 9 9 9
Cover BKN BKN BKN OVC OVC OVC OVC OVC OVC OVC OVC OVC OVC
FltCat MVFR MVFR MVFR IFR IFR IFR IFR IFR IFR IFR IFR IFR IFR
WX -RA -RA -RA RA BR RA BR RA BR RA BR RA BR RA BR RA BR RA BR RA BR RA BR
WDir 80 80 80 90 90 90 90 90 90 90 130 130 130
WSpd 17 17 17 16 16 16 16 16 16 16 19 19 19
WGst 24 24 24 22 22 22 22 22 22 22 27 27 27
Raw TAF
KLGA 241720Z 2418/2524 07016G22KT P6SM SCT025 BKN035 BKN250
  FM242000 08016G24KT P6SM BKN025 BKN050
  FM250600 08017G24KT 6SM -RA BKN015 BKN050
  FM250900 09016G22KT 3SM RA BR BKN009 OVC035
  FM251600 13019G27KT 2SM RA BR OVC009
  FM251900 16018G26KT 4SM -RA BR SCT009 BKN012 OVC015
  FM252200 18013KT 5SM BR SCT010 BKN015 OVC025


METAR Board
Radar Display
Forecast Discussion
For situational awareness. Not to be used for flight planning purposes.